»·PEaware :: SWA867 KPHX-KSAN

SWA867 :: KPHX-KSAN

FLIGHT INFORMATION

Flight Status: Arrived
Operator:
Southwest Airlines
More flights by this operator :: More flights under this callsign
Pilot: Utku A. (15598)
Aircraft: BOEING 737-300
(B733)
More flights by this aircraft type
Origin: KPHX Phoenix Sky Harbor Intl
United States
Destination: KSAN San Diego Intl-Lindbergh
United States
More flights between these airports :: More routes between these airports
Route: +JUDTH6 MOHAK HOGGZ LUCKI1
File this flight plan on PilotEdge
Remarks:
Altitude:
(Current/Filed)
32,000ft
Speed:
(Current/Filed)
450kts
Departed: 27-Apr-18 10:21 AM
Arrived: 27-Apr-18 11:19 AM
Distance/Time
Traveled:
264nm/0:58
Distance/Time
To Go:
Arrived

Flight Plot

Page will automatically refresh every two minutes.

Flight plan parsing failed; only flown route is shown


Map Options




Map Legend


Flown Route
Filed Route
Departure Airport
Arrival Airport
Navaid (VOR, NDB)
Fix

Horizontal Profiles

Position Reports

Time Latitude Longitude Heading Altitude Ground
Speed
27-Apr-18 09:49 33.434131 -111.993821 272 1124ft 0kts
27-Apr-18 09:50 33.434131 -111.993821 272 1124ft 0kts
27-Apr-18 09:51 33.434131 -111.993821 272 1124ft 0kts
27-Apr-18 09:52 33.434131 -111.993821 272 1124ft 0kts
27-Apr-18 09:53 33.434131 -111.993821 272 1124ft 0kts
27-Apr-18 09:54 33.434131 -111.993821 272 1124ft 0kts
27-Apr-18 09:55 33.434131 -111.993821 272 1124ft 0kts
27-Apr-18 09:56 33.434131 -111.993821 272 1124ft 0kts
27-Apr-18 09:57 33.434131 -111.993821 272 1124ft 0kts
27-Apr-18 09:58 33.434131 -111.993821 272 1124ft 0kts
27-Apr-18 09:59 33.434131 -111.993821 272 1124ft 0kts
27-Apr-18 10:00 33.434131 -111.993821 272 1124ft 0kts
27-Apr-18 10:01 33.434131 -111.993821 272 1124ft 0kts
27-Apr-18 10:02 33.434131 -111.993821 272 1124ft 0kts
27-Apr-18 10:03 33.434131 -111.993821 272 1124ft 0kts
27-Apr-18 10:04 33.434126 -111.993676 272 1124ft 2kts
27-Apr-18 10:05 33.434341 -111.993149 189 1125ft 2kts
27-Apr-18 10:06 33.434445 -111.993145 180 1125ft 0kts
27-Apr-18 10:07 33.434445 -111.993145 180 1125ft 0kts
27-Apr-18 10:08 33.434445 -111.993145 180 1125ft 0kts
27-Apr-18 10:09 33.434303 -111.993145 180 1125ft 3kts
27-Apr-18 10:10 33.433450 -111.993141 180 1123ft 0kts
27-Apr-18 10:11 33.433191 -111.993166 192 1123ft 5kts
27-Apr-18 10:12 33.432856 -111.996722 270 1122ft 15kts
27-Apr-18 10:13 33.432862 -112.002426 270 1125ft 19kts
27-Apr-18 10:14 33.432869 -112.009138 270 1127ft 21kts
27-Apr-18 10:15 33.432880 -112.015926 269 1121ft 21kts
27-Apr-18 10:16 33.432888 -112.022495 269 1116ft 20kts
27-Apr-18 10:17 33.432514 -112.026868 198 1113ft 9kts
27-Apr-18 10:18 33.431756 -112.026956 178 1113ft 4kts
27-Apr-18 10:19 33.431056 -112.025557 89 1115ft 30kts
27-Apr-18 10:20 33.431874 -111.984144 86 1993ft 161kts
27-Apr-18 10:21 33.434754 -111.928075 88 4096ft 175kts
27-Apr-18 10:22 33.434148 -111.868702 113 6166ft 186kts
27-Apr-18 10:23 33.389806 -111.841810 179 8161ft 193kts
27-Apr-18 10:24 33.352038 -111.884419 262 9892ft 218kts
27-Apr-18 10:25 33.357784 -111.962241 278 11338ft 264kts
27-Apr-18 10:26 33.337162 -112.058505 233 12057ft 350kts
27-Apr-18 10:27 33.278668 -112.153654 233 14807ft 362kts
27-Apr-18 10:28 33.218288 -112.251852 232 17411ft 372kts
27-Apr-18 10:29 33.156198 -112.352577 232 19814ft 382kts
27-Apr-18 10:30 33.093011 -112.454804 232 22032ft 390kts
27-Apr-18 10:31 33.028135 -112.559470 232 24087ft 397kts
27-Apr-18 10:32 32.963368 -112.665163 238 25891ft 405kts
27-Apr-18 10:33 32.939847 -112.797017 258 27624ft 415kts
27-Apr-18 10:34 32.921860 -112.931878 259 29766ft 407kts
27-Apr-18 10:35 32.904104 -113.062891 259 31623ft 399kts
27-Apr-18 10:36 32.886130 -113.192630 259 31975ft 403kts
27-Apr-18 10:37 32.868052 -113.323615 259 31964ft 401kts
27-Apr-18 10:38 32.849906 -113.454283 259 31965ft 401kts
27-Apr-18 10:39 32.831614 -113.584962 259 31962ft 401kts
27-Apr-18 10:40 32.813153 -113.714300 258 31953ft 401kts
27-Apr-18 10:41 32.794188 -113.844766 259 31947ft 401kts
27-Apr-18 10:42 32.775854 -113.975192 263 31941ft 402kts
27-Apr-18 10:43 32.776117 -114.107934 271 31949ft 403kts
27-Apr-18 10:44 32.781763 -114.240802 271 31946ft 403kts
27-Apr-18 10:45 32.787057 -114.373684 271 31946ft 403kts
27-Apr-18 10:46 32.819222 -114.502111 285 31948ft 407kts
27-Apr-18 10:47 32.854510 -114.629786 285 31947ft 407kts
27-Apr-18 10:48 32.879718 -114.757547 266 31949ft 401kts
27-Apr-18 10:49 32.876496 -114.890094 266 31947ft 401kts
27-Apr-18 10:50 32.873463 -115.016150 269 31946ft 402kts
27-Apr-18 10:51 32.870163 -115.148677 268 31945ft 403kts
27-Apr-18 10:52 32.866689 -115.281990 267 31094ft 398kts
27-Apr-18 10:53 32.855474 -115.409876 260 28203ft 388kts
27-Apr-18 10:54 32.836728 -115.534023 259 26003ft 373kts
27-Apr-18 10:55 32.816784 -115.656288 259 24607ft 374kts
27-Apr-18 10:56 32.797296 -115.775436 259 22888ft 366kts
27-Apr-18 10:57 32.781662 -115.893144 265 21157ft 359kts
27-Apr-18 10:58 32.773138 -116.009664 265 19166ft 350kts
27-Apr-18 10:59 32.764682 -116.122469 265 17183ft 341kts
27-Apr-18 11:00 32.756330 -116.232694 265 15200ft 332kts
27-Apr-18 11:01 32.747927 -116.339741 265 13892ft 321kts
27-Apr-18 11:02 32.740037 -116.440435 265 12685ft 304kts
27-Apr-18 11:03 32.731555 -116.539386 264 10593ft 290kts
27-Apr-18 11:04 32.722595 -116.632364 264 9951ft 284kts
27-Apr-18 11:05 32.716375 -116.705914 265 9987ft 286kts
27-Apr-18 11:06 32.708874 -116.800524 265 7846ft 291kts
27-Apr-18 11:07 32.687640 -116.881960 251 7194ft 233kts
27-Apr-18 11:08 32.666364 -116.953849 251 6400ft 228kts
27-Apr-18 11:09 32.645054 -117.023267 252 5971ft 222kts
27-Apr-18 11:10 32.679822 -117.071575 5 4942ft 243kts
27-Apr-18 11:11 32.746001 -117.053810 17 3233ft 236kts
27-Apr-18 11:12 32.782394 -117.003800 99 3012ft 224kts
27-Apr-18 11:13 32.740918 -116.991794 239 3033ft 180kts
27-Apr-18 11:14 32.717604 -117.039784 242 2440ft 165kts
27-Apr-18 11:15 32.708914 -117.090894 287 2017ft 154kts
27-Apr-18 11:16 32.720588 -117.136644 286 1043ft 142kts
27-Apr-18 11:17 32.731201 -117.180094 286 59ft 132kts
27-Apr-18 11:18 32.736170 -117.200535 284 17ft 11kts
27-Apr-18 11:19 32.734938 -117.199643 105 17ft 16kts
27-Apr-18 11:20 32.733738 -117.197624 254 17ft 2kts
27-Apr-18 11:21 32.733684 -117.197847 254 17ft 0kts
27-Apr-18 11:22 32.733684 -117.197847 254 17ft 0kts
27-Apr-18 11:23 32.733684 -117.197847 254 17ft 0kts
27-Apr-18 11:24 32.733684 -117.197847 254 17ft 0kts

Navigation Log

Ident Type
Flight plan parsing failed, navigation log unavailable